sensor_id;sensor_type;location;lat;lon;timestamp;P1;durP1;ratioP1;P2;durP2;ratioP2
62258;SDS011;48241;48.824;10.102;2023-03-15T00:01:43;4.97;;;2.55;;
62258;SDS011;48241;48.824;10.102;2023-03-15T00:04:10;3.03;;;1.83;;
62258;SDS011;48241;48.824;10.102;2023-03-15T00:06:36;3.10;;;1.50;;
62258;SDS011;48241;48.824;10.102;2023-03-15T00:09:02;2.42;;;1.40;;
62258;SDS011;48241;48.824;10.102;2023-03-15T00:11:28;3.75;;;1.35;;
62258;SDS011;48241;48.824;10.102;2023-03-15T00:13:55;4.30;;;1.50;;
62258;SDS011;48241;48.824;10.102;2023-03-15T00:16:22;1.73;;;1.35;;
62258;SDS011;48241;48.824;10.102;2023-03-15T00:18:51;1.38;;;1.25;;
62258;SDS011;48241;48.824;10.102;2023-03-15T00:21:18;2.47;;;1.20;;
62258;SDS011;48241;48.824;10.102;2023-03-15T00:23:44;3.42;;;0.70;;
62258;SDS011;48241;48.824;10.102;2023-03-15T00:26:09;1.45;;;0.93;;
62258;SDS011;48241;48.824;10.102;2023-03-15T00:28:35;1.00;;;0.90;;
62258;SDS011;48241;48.824;10.102;2023-03-15T00:31:06;2.20;;;0.80;;
62258;SDS011;48241;48.824;10.102;2023-03-15T00:33:39;1.27;;;0.75;;
62258;SDS011;48241;48.824;10.102;2023-03-15T00:36:06;0.60;;;0.60;;
62258;SDS011;48241;48.824;10.102;2023-03-15T00:38:33;1.23;;;0.68;;
62258;SDS011;48241;48.824;10.102;2023-03-15T00:41:10;2.75;;;0.80;;
62258;SDS011;48241;48.824;10.102;2023-03-15T00:43:38;2.25;;;0.90;;
62258;SDS011;48241;48.824;10.102;2023-03-15T00:46:04;1.67;;;0.82;;
62258;SDS011;48241;48.824;10.102;2023-03-15T00:48:30;0.65;;;0.55;;
62258;SDS011;48241;48.824;10.102;2023-03-15T00:51:01;0.50;;;0.50;;
62258;SDS011;48241;48.824;10.102;2023-03-15T00:53:30;1.65;;;0.68;;
62258;SDS011;48241;48.824;10.102;2023-03-15T00:55:56;1.92;;;0.70;;
62258;SDS011;48241;48.824;10.102;2023-03-15T00:58:22;0.63;;;0.60;;
62258;SDS011;48241;48.824;10.102;2023-03-15T01:00:47;2.08;;;0.80;;
62258;SDS011;48241;48.824;10.102;2023-03-15T01:03:13;3.45;;;0.70;;
62258;SDS011;48241;48.824;10.102;2023-03-15T01:05:39;3.55;;;0.60;;
62258;SDS011;48241;48.824;10.102;2023-03-15T01:08:04;0.55;;;0.50;;
62258;SDS011;48241;48.824;10.102;2023-03-15T01:10:30;0.63;;;0.60;;
62258;SDS011;48241;48.824;10.102;2023-03-15T01:12:59;3.40;;;0.80;;
62258;SDS011;48241;48.824;10.102;2023-03-15T01:15:25;1.98;;;0.90;;
62258;SDS011;48241;48.824;10.102;2023-03-15T01:17:50;1.02;;;0.50;;
62258;SDS011;48241;48.824;10.102;2023-03-15T01:20:16;2.25;;;0.80;;
62258;SDS011;48241;48.824;10.102;2023-03-15T01:22:41;0.57;;;0.47;;
62258;SDS011;48241;48.824;10.102;2023-03-15T01:25:07;1.55;;;0.52;;
62258;SDS011;48241;48.824;10.102;2023-03-15T01:27:33;2.78;;;0.90;;
62258;SDS011;48241;48.824;10.102;2023-03-15T01:29:59;3.03;;;0.68;;
62258;SDS011;48241;48.824;10.102;2023-03-15T01:32:25;2.17;;;0.50;;
62258;SDS011;48241;48.824;10.102;2023-03-15T01:34:51;3.28;;;0.73;;
62258;SDS011;48241;48.824;10.102;2023-03-15T01:37:16;1.67;;;0.70;;
62258;SDS011;48241;48.824;10.102;2023-03-15T01:39:42;1.10;;;0.73;;
62258;SDS011;48241;48.824;10.102;2023-03-15T01:42:08;1.70;;;0.77;;
62258;SDS011;48241;48.824;10.102;2023-03-15T01:47:26;2.28;;;0.82;;
62258;SDS011;48241;48.824;10.102;2023-03-15T01:49:57;1.10;;;1.00;;
62258;SDS011;48241;48.824;10.102;2023-03-15T01:52:30;2.17;;;0.95;;
62258;SDS011;48241;48.824;10.102;2023-03-15T01:55:00;3.60;;;1.10;;
62258;SDS011;48241;48.824;10.102;2023-03-15T01:57:42;4.57;;;1.20;;
62258;SDS011;48241;48.824;10.102;2023-03-15T02:00:16;2.95;;;1.52;;
62258;SDS011;48241;48.824;10.102;2023-03-15T02:02:49;4.73;;;1.53;;
62258;SDS011;48241;48.824;10.102;2023-03-15T02:05:20;2.92;;;1.52;;
62258;SDS011;48241;48.824;10.102;2023-03-15T02:07:49;1.85;;;1.33;;
62258;SDS011;48241;48.824;10.102;2023-03-15T02:10:52;2.95;;;1.58;;
62258;SDS011;48241;48.824;10.102;2023-03-15T02:13:16;3.22;;;1.80;;
62258;SDS011;48241;48.824;10.102;2023-03-15T02:15:43;4.95;;;1.95;;
62258;SDS011;48241;48.824;10.102;2023-03-15T02:18:11;3.70;;;1.88;;
62258;SDS011;48241;48.824;10.102;2023-03-15T02:23:27;4.25;;;1.85;;
62258;SDS011;48241;48.824;10.102;2023-03-15T02:28:54;4.68;;;2.33;;
62258;SDS011;48241;48.824;10.102;2023-03-15T02:31:20;4.32;;;2.17;;
62258;SDS011;48241;48.824;10.102;2023-03-15T02:33:46;4.63;;;2.15;;
62258;SDS011;48241;48.824;10.102;2023-03-15T02:38:48;3.38;;;1.98;;
62258;SDS011;48241;48.824;10.102;2023-03-15T02:41:15;5.35;;;2.15;;
62258;SDS011;48241;48.824;10.102;2023-03-15T02:43:45;4.03;;;2.13;;
62258;SDS011;48241;48.824;10.102;2023-03-15T02:46:15;3.75;;;2.60;;
62258;SDS011;48241;48.824;10.102;2023-03-15T02:48:41;3.38;;;2.80;;
62258;SDS011;48241;48.824;10.102;2023-03-15T02:51:15;3.95;;;2.80;;
62258;SDS011;48241;48.824;10.102;2023-03-15T02:53:43;4.95;;;2.47;;
62258;SDS011;48241;48.824;10.102;2023-03-15T02:56:09;5.40;;;2.70;;
62258;SDS011;48241;48.824;10.102;2023-03-15T02:58:34;3.92;;;2.60;;
62258;SDS011;48241;48.824;10.102;2023-03-15T03:01:00;6.18;;;3.00;;
62258;SDS011;48241;48.824;10.102;2023-03-15T03:03:25;4.80;;;2.90;;
62258;SDS011;48241;48.824;10.102;2023-03-15T03:05:51;4.30;;;3.22;;
62258;SDS011;48241;48.824;10.102;2023-03-15T03:08:16;4.35;;;3.15;;
62258;SDS011;48241;48.824;10.102;2023-03-15T03:10:44;4.13;;;3.38;;
62258;SDS011;48241;48.824;10.102;2023-03-15T03:13:14;6.75;;;3.53;;
62258;SDS011;48241;48.824;10.102;2023-03-15T03:15:43;5.95;;;3.92;;
62258;SDS011;48241;48.824;10.102;2023-03-15T03:18:09;6.80;;;4.35;;
62258;SDS011;48241;48.824;10.102;2023-03-15T03:20:35;6.78;;;4.40;;
62258;SDS011;48241;48.824;10.102;2023-03-15T03:23:00;9.00;;;5.05;;
62258;SDS011;48241;48.824;10.102;2023-03-15T03:25:30;8.13;;;5.07;;
62258;SDS011;48241;48.824;10.102;2023-03-15T03:27:56;8.85;;;5.43;;
62258;SDS011;48241;48.824;10.102;2023-03-15T03:30:22;10.10;;;5.25;;
62258;SDS011;48241;48.824;10.102;2023-03-15T03:32:48;11.32;;;5.78;;
62258;SDS011;48241;48.824;10.102;2023-03-15T03:35:14;13.10;;;5.88;;
62258;SDS011;48241;48.824;10.102;2023-03-15T03:37:40;9.93;;;5.75;;
62258;SDS011;48241;48.824;10.102;2023-03-15T03:40:06;11.57;;;6.03;;
62258;SDS011;48241;48.824;10.102;2023-03-15T03:42:33;11.35;;;6.82;;
62258;SDS011;48241;48.824;10.102;2023-03-15T03:44:59;11.02;;;6.03;;
62258;SDS011;48241;48.824;10.102;2023-03-15T03:47:25;11.77;;;5.93;;
62258;SDS011;48241;48.824;10.102;2023-03-15T03:49:50;10.38;;;6.07;;
62258;SDS011;48241;48.824;10.102;2023-03-15T03:52:16;11.10;;;7.05;;
62258;SDS011;48241;48.824;10.102;2023-03-15T03:54:41;12.02;;;8.02;;
62258;SDS011;48241;48.824;10.102;2023-03-15T03:57:07;13.75;;;8.70;;
62258;SDS011;48241;48.824;10.102;2023-03-15T03:59:34;15.35;;;9.50;;
62258;SDS011;48241;48.824;10.102;2023-03-15T04:02:00;16.25;;;9.65;;
62258;SDS011;48241;48.824;10.102;2023-03-15T04:04:25;18.65;;;9.80;;
62258;SDS011;48241;48.824;10.102;2023-03-15T04:06:51;14.40;;;9.75;;
62258;SDS011;48241;48.824;10.102;2023-03-15T04:09:19;15.25;;;8.52;;
62258;SDS011;48241;48.824;10.102;2023-03-15T04:11:46;17.73;;;9.90;;
62258;SDS011;48241;48.824;10.102;2023-03-15T04:14:12;18.20;;;9.95;;
62258;SDS011;48241;48.824;10.102;2023-03-15T04:16:38;16.00;;;10.35;;
62258;SDS011;48241;48.824;10.102;2023-03-15T04:19:05;17.10;;;9.93;;
62258;SDS011;48241;48.824;10.102;2023-03-15T04:21:31;16.40;;;7.60;;
62258;SDS011;48241;48.824;10.102;2023-03-15T04:23:58;14.88;;;8.30;;
62258;SDS011;48241;48.824;10.102;2023-03-15T04:26:24;16.08;;;8.40;;
62258;SDS011;48241;48.824;10.102;2023-03-15T04:28:54;13.20;;;8.02;;
62258;SDS011;48241;48.824;10.102;2023-03-15T04:31:21;15.98;;;7.85;;
62258;SDS011;48241;48.824;10.102;2023-03-15T04:33:51;11.73;;;6.70;;
62258;SDS011;48241;48.824;10.102;2023-03-15T04:36:20;13.60;;;7.60;;
62258;SDS011;48241;48.824;10.102;2023-03-15T04:38:46;14.27;;;7.35;;
62258;SDS011;48241;48.824;10.102;2023-03-15T04:41:13;14.23;;;8.18;;
62258;SDS011;48241;48.824;10.102;2023-03-15T04:43:40;15.68;;;8.07;;
62258;SDS011;48241;48.824;10.102;2023-03-15T04:46:05;13.27;;;8.02;;
62258;SDS011;48241;48.824;10.102;2023-03-15T04:48:32;15.40;;;8.07;;
62258;SDS011;48241;48.824;10.102;2023-03-15T04:50:57;11.35;;;7.90;;
62258;SDS011;48241;48.824;10.102;2023-03-15T04:53:23;13.60;;;6.35;;
62258;SDS011;48241;48.824;10.102;2023-03-15T04:55:49;13.68;;;7.43;;
62258;SDS011;48241;48.824;10.102;2023-03-15T04:58:14;12.18;;;7.13;;
62258;SDS011;48241;48.824;10.102;2023-03-15T05:00:40;12.57;;;6.47;;
62258;SDS011;48241;48.824;10.102;2023-03-15T05:03:05;11.32;;;6.15;;
62258;SDS011;48241;48.824;10.102;2023-03-15T05:05:31;12.10;;;7.03;;
62258;SDS011;48241;48.824;10.102;2023-03-15T05:07:57;10.20;;;6.60;;
62258;SDS011;48241;48.824;10.102;2023-03-15T05:10:23;11.38;;;6.47;;
62258;SDS011;48241;48.824;10.102;2023-03-15T05:12:49;9.57;;;5.88;;
62258;SDS011;48241;48.824;10.102;2023-03-15T05:15:15;11.15;;;6.20;;
62258;SDS011;48241;48.824;10.102;2023-03-15T05:17:41;18.17;;;6.60;;
62258;SDS011;48241;48.824;10.102;2023-03-15T05:20:12;12.30;;;5.28;;
62258;SDS011;48241;48.824;10.102;2023-03-15T05:22:38;11.85;;;6.25;;
62258;SDS011;48241;48.824;10.102;2023-03-15T05:25:04;15.07;;;8.32;;
62258;SDS011;48241;48.824;10.102;2023-03-15T05:27:31;12.20;;;6.30;;
62258;SDS011;48241;48.824;10.102;2023-03-15T05:29:57;11.95;;;7.85;;
62258;SDS011;48241;48.824;10.102;2023-03-15T05:32:23;16.90;;;6.78;;
62258;SDS011;48241;48.824;10.102;2023-03-15T05:37:48;13.13;;;6.10;;
62258;SDS011;48241;48.824;10.102;2023-03-15T05:40:28;10.98;;;6.28;;
62258;SDS011;48241;48.824;10.102;2023-03-15T05:46:20;14.75;;;6.22;;
62258;SDS011;48241;48.824;10.102;2023-03-15T05:48:54;17.30;;;8.05;;
62258;SDS011;48241;48.824;10.102;2023-03-15T05:51:20;17.10;;;9.88;;
62258;SDS011;48241;48.824;10.102;2023-03-15T05:54:12;25.65;;;12.73;;
62258;SDS011;48241;48.824;10.102;2023-03-15T06:02:23;12.15;;;6.68;;
62258;SDS011;48241;48.824;10.102;2023-03-15T06:04:57;17.67;;;8.50;;
62258;SDS011;48241;48.824;10.102;2023-03-15T06:07:40;16.73;;;7.28;;
62258;SDS011;48241;48.824;10.102;2023-03-15T06:10:35;15.27;;;6.53;;
62258;SDS011;48241;48.824;10.102;2023-03-15T06:13:17;18.40;;;7.05;;
62258;SDS011;48241;48.824;10.102;2023-03-15T06:15:52;17.15;;;7.18;;
62258;SDS011;48241;48.824;10.102;2023-03-15T06:21:20;14.45;;;6.90;;
62258;SDS011;48241;48.824;10.102;2023-03-15T06:23:59;13.82;;;6.13;;
62258;SDS011;48241;48.824;10.102;2023-03-15T06:26:28;11.40;;;5.53;;
62258;SDS011;48241;48.824;10.102;2023-03-15T06:31:54;10.45;;;4.38;;
62258;SDS011;48241;48.824;10.102;2023-03-15T06:34:39;9.90;;;4.25;;
62258;SDS011;48241;48.824;10.102;2023-03-15T06:43:29;7.22;;;3.05;;
62258;SDS011;48241;48.824;10.102;2023-03-15T06:46:39;7.53;;;3.35;;
62258;SDS011;48241;48.824;10.102;2023-03-15T06:49:22;11.00;;;3.10;;
62258;SDS011;48241;48.824;10.102;2023-03-15T06:52:22;4.63;;;2.67;;
62258;SDS011;48241;48.824;10.102;2023-03-15T06:54:54;8.68;;;2.50;;
62258;SDS011;48241;48.824;10.102;2023-03-15T06:57:48;8.40;;;2.45;;
62258;SDS011;48241;48.824;10.102;2023-03-15T07:00:17;7.60;;;2.33;;
62258;SDS011;48241;48.824;10.102;2023-03-15T07:02:43;6.93;;;2.78;;
62258;SDS011;48241;48.824;10.102;2023-03-15T07:05:08;6.40;;;2.50;;
62258;SDS011;48241;48.824;10.102;2023-03-15T07:07:35;4.85;;;2.17;;
62258;SDS011;48241;48.824;10.102;2023-03-15T07:10:00;5.93;;;2.25;;
62258;SDS011;48241;48.824;10.102;2023-03-15T07:12:26;6.50;;;1.90;;
62258;SDS011;48241;48.824;10.102;2023-03-15T07:14:52;5.25;;;1.90;;
62258;SDS011;48241;48.824;10.102;2023-03-15T07:17:17;6.60;;;1.83;;
62258;SDS011;48241;48.824;10.102;2023-03-15T07:19:43;6.00;;;1.80;;
62258;SDS011;48241;48.824;10.102;2023-03-15T07:22:08;6.15;;;1.88;;
62258;SDS011;48241;48.824;10.102;2023-03-15T07:24:34;9.32;;;1.80;;
62258;SDS011;48241;48.824;10.102;2023-03-15T07:26:59;7.10;;;1.70;;
62258;SDS011;48241;48.824;10.102;2023-03-15T07:29:25;6.60;;;1.60;;
62258;SDS011;48241;48.824;10.102;2023-03-15T07:31:51;5.15;;;1.60;;
62258;SDS011;48241;48.824;10.102;2023-03-15T07:34:16;7.30;;;1.70;;
62258;SDS011;48241;48.824;10.102;2023-03-15T07:36:42;6.55;;;1.92;;
62258;SDS011;48241;48.824;10.102;2023-03-15T07:39:07;4.72;;;1.90;;
62258;SDS011;48241;48.824;10.102;2023-03-15T07:41:34;6.10;;;2.00;;
62258;SDS011;48241;48.824;10.102;2023-03-15T07:43:59;7.72;;;2.30;;
62258;SDS011;48241;48.824;10.102;2023-03-15T07:46:25;7.25;;;1.55;;
62258;SDS011;48241;48.824;10.102;2023-03-15T07:48:51;4.70;;;1.77;;
62258;SDS011;48241;48.824;10.102;2023-03-15T07:51:16;7.60;;;2.00;;
62258;SDS011;48241;48.824;10.102;2023-03-15T07:53:42;4.88;;;1.70;;
62258;SDS011;48241;48.824;10.102;2023-03-15T07:56:07;4.38;;;1.67;;
62258;SDS011;48241;48.824;10.102;2023-03-15T07:58:33;5.60;;;1.92;;
62258;SDS011;48241;48.824;10.102;2023-03-15T08:00:58;4.70;;;1.52;;
62258;SDS011;48241;48.824;10.102;2023-03-15T08:03:26;6.68;;;1.95;;
62258;SDS011;48241;48.824;10.102;2023-03-15T08:05:51;7.25;;;1.80;;
62258;SDS011;48241;48.824;10.102;2023-03-15T08:08:17;5.43;;;1.48;;
62258;SDS011;48241;48.824;10.102;2023-03-15T08:10:43;7.90;;;2.03;;
62258;SDS011;48241;48.824;10.102;2023-03-15T08:13:09;5.60;;;1.60;;
62258;SDS011;48241;48.824;10.102;2023-03-15T08:15:35;5.53;;;1.60;;
62258;SDS011;48241;48.824;10.102;2023-03-15T08:18:01;7.40;;;1.60;;
62258;SDS011;48241;48.824;10.102;2023-03-15T08:20:27;4.13;;;1.52;;
62258;SDS011;48241;48.824;10.102;2023-03-15T08:22:53;5.50;;;1.65;;
62258;SDS011;48241;48.824;10.102;2023-03-15T08:25:19;8.57;;;1.60;;
62258;SDS011;48241;48.824;10.102;2023-03-15T08:27:47;6.85;;;1.70;;
62258;SDS011;48241;48.824;10.102;2023-03-15T08:30:14;7.53;;;1.60;;
62258;SDS011;48241;48.824;10.102;2023-03-15T08:32:41;6.53;;;1.80;;
62258;SDS011;48241;48.824;10.102;2023-03-15T08:35:08;6.20;;;1.92;;
62258;SDS011;48241;48.824;10.102;2023-03-15T08:37:34;3.97;;;1.42;;
62258;SDS011;48241;48.824;10.102;2023-03-15T08:39:59;5.68;;;1.52;;
62258;SDS011;48241;48.824;10.102;2023-03-15T08:42:29;5.75;;;1.77;;
62258;SDS011;48241;48.824;10.102;2023-03-15T08:44:55;6.00;;;1.73;;
62258;SDS011;48241;48.824;10.102;2023-03-15T08:47:23;6.90;;;1.90;;
62258;SDS011;48241;48.824;10.102;2023-03-15T08:49:49;5.63;;;1.85;;
62258;SDS011;48241;48.824;10.102;2023-03-15T08:52:17;6.05;;;1.52;;
62258;SDS011;48241;48.824;10.102;2023-03-15T08:54:46;5.93;;;1.55;;
62258;SDS011;48241;48.824;10.102;2023-03-15T08:57:12;6.03;;;1.73;;
62258;SDS011;48241;48.824;10.102;2023-03-15T08:59:38;7.22;;;1.63;;
62258;SDS011;48241;48.824;10.102;2023-03-15T09:02:03;3.17;;;1.50;;
62258;SDS011;48241;48.824;10.102;2023-03-15T09:04:29;7.30;;;1.75;;
62258;SDS011;48241;48.824;10.102;2023-03-15T09:06:55;5.38;;;1.50;;
62258;SDS011;48241;48.824;10.102;2023-03-15T09:09:21;4.55;;;1.30;;
62258;SDS011;48241;48.824;10.102;2023-03-15T09:11:47;5.10;;;1.33;;
62258;SDS011;48241;48.824;10.102;2023-03-15T09:14:13;5.53;;;1.25;;
62258;SDS011;48241;48.824;10.102;2023-03-15T09:16:38;5.25;;;1.52;;
62258;SDS011;48241;48.824;10.102;2023-03-15T09:19:04;6.00;;;1.55;;
62258;SDS011;48241;48.824;10.102;2023-03-15T09:21:29;4.78;;;1.15;;
62258;SDS011;48241;48.824;10.102;2023-03-15T09:23:55;5.43;;;1.42;;
62258;SDS011;48241;48.824;10.102;2023-03-15T09:26:21;6.47;;;1.65;;
62258;SDS011;48241;48.824;10.102;2023-03-15T09:28:47;4.85;;;1.40;;
62258;SDS011;48241;48.824;10.102;2023-03-15T09:31:13;6.68;;;1.60;;
62258;SDS011;48241;48.824;10.102;2023-03-15T09:33:38;5.80;;;1.63;;
62258;SDS011;48241;48.824;10.102;2023-03-15T09:36:04;4.07;;;1.30;;
62258;SDS011;48241;48.824;10.102;2023-03-15T09:38:30;4.72;;;1.50;;
62258;SDS011;48241;48.824;10.102;2023-03-15T09:40:58;5.50;;;1.50;;
62258;SDS011;48241;48.824;10.102;2023-03-15T09:46:12;4.03;;;1.55;;
62258;SDS011;48241;48.824;10.102;2023-03-15T09:48:49;3.33;;;1.10;;
62258;SDS011;48241;48.824;10.102;2023-03-15T09:58:51;2.58;;;1.05;;
62258;SDS011;48241;48.824;10.102;2023-03-15T10:01:21;4.80;;;1.33;;
62258;SDS011;48241;48.824;10.102;2023-03-15T10:03:54;7.03;;;1.42;;
62258;SDS011;48241;48.824;10.102;2023-03-15T10:06:20;4.60;;;1.13;;
62258;SDS011;48241;48.824;10.102;2023-03-15T10:09:00;3.70;;;1.17;;
62258;SDS011;48241;48.824;10.102;2023-03-15T10:11:30;6.65;;;1.40;;
62258;SDS011;48241;48.824;10.102;2023-03-15T10:16:49;4.30;;;1.23;;
62258;SDS011;48241;48.824;10.102;2023-03-15T10:19:35;4.35;;;1.52;;
62258;SDS011;48241;48.824;10.102;2023-03-15T10:25:00;3.72;;;1.00;;
62258;SDS011;48241;48.824;10.102;2023-03-15T10:27:50;3.85;;;1.40;;
62258;SDS011;48241;48.824;10.102;2023-03-15T10:30:29;5.93;;;1.58;;
62258;SDS011;48241;48.824;10.102;2023-03-15T10:35:43;3.90;;;1.08;;
62258;SDS011;48241;48.824;10.102;2023-03-15T10:38:15;7.57;;;1.20;;
62258;SDS011;48241;48.824;10.102;2023-03-15T10:40:46;4.13;;;1.00;;
62258;SDS011;48241;48.824;10.102;2023-03-15T10:43:21;5.28;;;1.10;;
62258;SDS011;48241;48.824;10.102;2023-03-15T10:45:59;4.80;;;1.27;;
62258;SDS011;48241;48.824;10.102;2023-03-15T10:48:29;4.55;;;1.20;;
62258;SDS011;48241;48.824;10.102;2023-03-15T10:50:56;5.13;;;1.30;;
62258;SDS011;48241;48.824;10.102;2023-03-15T10:53:29;6.10;;;1.30;;
62258;SDS011;48241;48.824;10.102;2023-03-15T10:55:59;5.75;;;1.15;;
62258;SDS011;48241;48.824;10.102;2023-03-15T10:58:46;4.30;;;1.40;;
62258;SDS011;48241;48.824;10.102;2023-03-15T11:01:21;4.53;;;1.15;;
62258;SDS011;48241;48.824;10.102;2023-03-15T11:06:48;4.53;;;1.00;;
62258;SDS011;48241;48.824;10.102;2023-03-15T11:09:19;2.35;;;1.10;;
62258;SDS011;48241;48.824;10.102;2023-03-15T11:12:03;5.85;;;1.10;;
62258;SDS011;48241;48.824;10.102;2023-03-15T11:14:32;5.15;;;1.27;;
62258;SDS011;48241;48.824;10.102;2023-03-15T11:16:58;8.13;;;1.40;;
62258;SDS011;48241;48.824;10.102;2023-03-15T11:19:25;2.83;;;1.30;;
62258;SDS011;48241;48.824;10.102;2023-03-15T11:21:53;3.47;;;1.20;;
62258;SDS011;48241;48.824;10.102;2023-03-15T11:24:24;3.40;;;1.08;;
62258;SDS011;48241;48.824;10.102;2023-03-15T11:26:55;3.53;;;1.20;;
62258;SDS011;48241;48.824;10.102;2023-03-15T11:29:35;3.72;;;1.10;;
62258;SDS011;48241;48.824;10.102;2023-03-15T11:32:09;4.88;;;1.40;;
62258;SDS011;48241;48.824;10.102;2023-03-15T11:34:40;7.72;;;1.70;;
62258;SDS011;48241;48.824;10.102;2023-03-15T11:37:21;5.00;;;1.33;;
62258;SDS011;48241;48.824;10.102;2023-03-15T11:39:52;4.32;;;1.10;;
62258;SDS011;48241;48.824;10.102;2023-03-15T11:42:27;5.50;;;1.38;;
62258;SDS011;48241;48.824;10.102;2023-03-15T11:44:58;4.70;;;1.17;;
62258;SDS011;48241;48.824;10.102;2023-03-15T11:47:47;3.30;;;1.10;;
62258;SDS011;48241;48.824;10.102;2023-03-15T11:50:23;1.73;;;0.73;;
62258;SDS011;48241;48.824;10.102;2023-03-15T11:52:49;4.55;;;1.20;;
62258;SDS011;48241;48.824;10.102;2023-03-15T11:55:18;1.92;;;1.00;;
62258;SDS011;48241;48.824;10.102;2023-03-15T11:57:47;4.43;;;0.90;;
62258;SDS011;48241;48.824;10.102;2023-03-15T12:00:15;4.38;;;0.93;;
62258;SDS011;48241;48.824;10.102;2023-03-15T12:02:49;3.72;;;0.85;;
62258;SDS011;48241;48.824;10.102;2023-03-15T12:10:59;3.92;;;0.75;;
62258;SDS011;48241;48.824;10.102;2023-03-15T12:13:29;2.05;;;0.80;;
62258;SDS011;48241;48.824;10.102;2023-03-15T12:15:56;2.42;;;0.88;;
62258;SDS011;48241;48.824;10.102;2023-03-15T12:18:32;3.60;;;1.20;;
62258;SDS011;48241;48.824;10.102;2023-03-15T12:21:05;2.38;;;1.17;;
62258;SDS011;48241;48.824;10.102;2023-03-15T12:23:36;5.43;;;0.90;;
62258;SDS011;48241;48.824;10.102;2023-03-15T12:26:05;4.30;;;1.05;;
62258;SDS011;48241;48.824;10.102;2023-03-15T12:28:38;3.92;;;0.68;;
62258;SDS011;48241;48.824;10.102;2023-03-15T12:31:10;7.68;;;1.40;;
62258;SDS011;48241;48.824;10.102;2023-03-15T12:33:47;4.40;;;1.00;;
62258;SDS011;48241;48.824;10.102;2023-03-15T12:36:17;4.18;;;1.20;;
62258;SDS011;48241;48.824;10.102;2023-03-15T12:41:38;3.08;;;1.10;;
62258;SDS011;48241;48.824;10.102;2023-03-15T12:46:56;4.07;;;1.00;;
62258;SDS011;48241;48.824;10.102;2023-03-15T12:54:50;4.28;;;1.38;;
62258;SDS011;48241;48.824;10.102;2023-03-15T12:57:28;5.75;;;1.60;;
62258;SDS011;48241;48.824;10.102;2023-03-15T13:00:00;5.00;;;1.33;;
62258;SDS011;48241;48.824;10.102;2023-03-15T13:13:54;7.38;;;1.77;;
62258;SDS011;48241;48.824;10.102;2023-03-15T13:35:44;3.90;;;1.52;;
62258;SDS011;48241;48.824;10.102;2023-03-15T13:41:05;7.88;;;1.98;;
62258;SDS011;48241;48.824;10.102;2023-03-15T13:43:46;7.13;;;1.60;;
62258;SDS011;48241;48.824;10.102;2023-03-15T13:46:13;4.80;;;1.58;;
62258;SDS011;48241;48.824;10.102;2023-03-15T13:48:40;4.30;;;1.65;;
62258;SDS011;48241;48.824;10.102;2023-03-15T13:53:37;6.30;;;1.75;;
62258;SDS011;48241;48.824;10.102;2023-03-15T13:56:05;5.40;;;1.90;;
62258;SDS011;48241;48.824;10.102;2023-03-15T13:58:32;6.20;;;1.50;;
62258;SDS011;48241;48.824;10.102;2023-03-15T14:01:00;4.07;;;1.70;;
62258;SDS011;48241;48.824;10.102;2023-03-15T14:03:29;3.80;;;1.63;;
62258;SDS011;48241;48.824;10.102;2023-03-15T14:05:56;4.05;;;1.67;;
62258;SDS011;48241;48.824;10.102;2023-03-15T14:10:58;6.20;;;2.22;;
62258;SDS011;48241;48.824;10.102;2023-03-15T14:13:34;9.30;;;2.55;;
62258;SDS011;48241;48.824;10.102;2023-03-15T14:16:13;4.57;;;1.83;;
62258;SDS011;48241;48.824;10.102;2023-03-15T14:18:50;4.10;;;1.90;;
62258;SDS011;48241;48.824;10.102;2023-03-15T14:21:17;5.47;;;2.20;;
62258;SDS011;48241;48.824;10.102;2023-03-15T14:23:46;3.90;;;2.03;;
62258;SDS011;48241;48.824;10.102;2023-03-15T14:26:16;6.00;;;1.77;;
62258;SDS011;48241;48.824;10.102;2023-03-15T14:31:22;3.88;;;1.50;;
62258;SDS011;48241;48.824;10.102;2023-03-15T14:33:56;3.63;;;1.40;;
62258;SDS011;48241;48.824;10.102;2023-03-15T14:36:31;7.25;;;1.50;;
62258;SDS011;48241;48.824;10.102;2023-03-15T14:39:14;3.25;;;1.20;;
62258;SDS011;48241;48.824;10.102;2023-03-15T14:41:54;4.30;;;1.30;;
62258;SDS011;48241;48.824;10.102;2023-03-15T14:44:20;5.45;;;1.42;;
62258;SDS011;48241;48.824;10.102;2023-03-15T14:46:46;2.33;;;1.38;;
62258;SDS011;48241;48.824;10.102;2023-03-15T14:49:14;4.63;;;1.67;;
62258;SDS011;48241;48.824;10.102;2023-03-15T14:51:51;4.80;;;2.50;;
62258;SDS011;48241;48.824;10.102;2023-03-15T14:54:21;4.07;;;2.55;;
62258;SDS011;48241;48.824;10.102;2023-03-15T14:56:46;3.72;;;1.80;;
62258;SDS011;48241;48.824;10.102;2023-03-15T14:59:12;4.53;;;1.48;;
62258;SDS011;48241;48.824;10.102;2023-03-15T15:01:38;4.72;;;1.60;;
62258;SDS011;48241;48.824;10.102;2023-03-15T15:04:08;4.20;;;1.50;;
62258;SDS011;48241;48.824;10.102;2023-03-15T15:06:35;15.75;;;7.32;;
62258;SDS011;48241;48.824;10.102;2023-03-15T15:09:02;5.10;;;3.20;;
62258;SDS011;48241;48.824;10.102;2023-03-15T15:11:29;6.10;;;2.10;;
62258;SDS011;48241;48.824;10.102;2023-03-15T15:13:55;4.82;;;2.55;;
62258;SDS011;48241;48.824;10.102;2023-03-15T15:16:21;11.57;;;5.95;;
62258;SDS011;48241;48.824;10.102;2023-03-15T15:18:47;6.90;;;2.78;;
62258;SDS011;48241;48.824;10.102;2023-03-15T15:21:14;3.38;;;2.05;;
62258;SDS011;48241;48.824;10.102;2023-03-15T15:23:49;5.55;;;2.53;;
62258;SDS011;48241;48.824;10.102;2023-03-15T15:26:19;6.78;;;2.30;;
62258;SDS011;48241;48.824;10.102;2023-03-15T15:28:46;7.38;;;2.63;;
62258;SDS011;48241;48.824;10.102;2023-03-15T15:31:15;3.55;;;2.00;;
62258;SDS011;48241;48.824;10.102;2023-03-15T15:33:42;10.70;;;4.28;;
62258;SDS011;48241;48.824;10.102;2023-03-15T15:36:11;5.97;;;2.53;;
62258;SDS011;48241;48.824;10.102;2023-03-15T15:38:40;6.07;;;1.85;;
62258;SDS011;48241;48.824;10.102;2023-03-15T15:41:10;8.40;;;2.22;;
62258;SDS011;48241;48.824;10.102;2023-03-15T15:43:38;5.85;;;1.80;;
62258;SDS011;48241;48.824;10.102;2023-03-15T15:46:04;6.97;;;2.15;;
62258;SDS011;48241;48.824;10.102;2023-03-15T15:48:30;4.00;;;2.33;;
62258;SDS011;48241;48.824;10.102;2023-03-15T15:50:55;5.03;;;2.10;;
62258;SDS011;48241;48.824;10.102;2023-03-15T15:53:21;3.28;;;1.63;;
62258;SDS011;48241;48.824;10.102;2023-03-15T15:55:47;3.45;;;1.58;;
62258;SDS011;48241;48.824;10.102;2023-03-15T15:58:13;2.72;;;1.80;;
62258;SDS011;48241;48.824;10.102;2023-03-15T16:00:40;3.22;;;1.52;;
62258;SDS011;48241;48.824;10.102;2023-03-15T16:03:10;2.22;;;1.40;;
62258;SDS011;48241;48.824;10.102;2023-03-15T16:05:40;3.65;;;1.55;;
62258;SDS011;48241;48.824;10.102;2023-03-15T16:08:09;3.50;;;1.98;;
62258;SDS011;48241;48.824;10.102;2023-03-15T16:10:47;4.18;;;1.98;;
62258;SDS011;48241;48.824;10.102;2023-03-15T16:13:13;4.22;;;2.10;;
62258;SDS011;48241;48.824;10.102;2023-03-15T16:15:39;3.95;;;2.28;;
62258;SDS011;48241;48.824;10.102;2023-03-15T16:18:08;5.25;;;2.45;;
62258;SDS011;48241;48.824;10.102;2023-03-15T16:20:34;5.38;;;2.00;;
62258;SDS011;48241;48.824;10.102;2023-03-15T16:23:01;3.88;;;2.40;;
62258;SDS011;48241;48.824;10.102;2023-03-15T16:25:27;5.88;;;2.50;;
62258;SDS011;48241;48.824;10.102;2023-03-15T16:27:57;2.58;;;2.10;;
62258;SDS011;48241;48.824;10.102;2023-03-15T16:30:28;5.28;;;2.05;;
62258;SDS011;48241;48.824;10.102;2023-03-15T16:32:56;1.60;;;1.20;;
62258;SDS011;48241;48.824;10.102;2023-03-15T16:35:23;4.60;;;2.40;;
62258;SDS011;48241;48.824;10.102;2023-03-15T16:37:59;4.93;;;2.20;;